Time;durP1;ratioP1;P1;durP2;ratioP2;P2;SDS_P1;SDS_P2;PMS_P1;PMS_P2;Temp;Humidity;BMP_temperature;BMP_pressure;BME280_temperature;BME280_humidity;BME280_pressure;Samples;Min_cycle;Max_cycle;Signal;HPM_P1;HPM_P2
2022/06/14 00:03:12;;;;;;;28.70;12.13;;;11.60;1.00;;;;;;4975271;28;20178;-87
2022/06/14 00:05:40;;;;;;;22.03;10.30;;;11.70;1.00;;;;;;4964376;28;20224;-90
2022/06/14 00:08:08;;;;;;;33.10;12.33;;;11.70;1.00;;;;;;4956117;29;20582;-87
2022/06/14 00:10:34;;;;;;;33.07;11.57;;;11.70;1.00;;;;;;4955715;29;20635;-87
2022/06/14 00:13:01;;;;;;;26.23;10.17;;;11.80;1.00;;;;;;4955841;29;20265;-86
2022/06/14 00:15:28;;;;;;;14.33;5.90;;;11.70;1.00;;;;;;4955494;29;20287;-86
2022/06/14 00:17:55;;;;;;;13.73;6.10;;;11.80;1.00;;;;;;4955938;29;20288;-87
2022/06/14 00:20:22;;;;;;;7.43;4.07;;;11.80;1.00;;;;;;4956100;29;20561;-89
2022/06/14 00:22:50;;;;;;;8.57;3.90;;;11.80;1.00;;;;;;4955777;29;20196;-87
2022/06/14 00:25:25;;;;;;;5.33;2.47;;;11.80;1.00;;;;;;4955507;29;20620;-86
2022/06/14 00:27:52;;;;;;;3.83;1.93;;;11.80;1.00;;;;;;4971327;28;20207;-86
2022/06/14 00:30:21;;;;;;;4.43;2.00;;;11.90;1.00;;;;;;4974955;28;20287;-86
2022/06/14 00:32:48;;;;;;;4.60;2.07;;;11.90;1.00;;;;;;4974913;28;20283;-89
2022/06/14 00:35:15;;;;;;;3.37;1.77;;;11.90;1.00;;;;;;4966596;28;20203;-87
2022/06/14 00:37:43;;;;;;;1.83;1.60;;;12.00;1.00;;;;;;4955123;29;20723;-87
2022/06/14 00:40:13;;;;;;;4.10;1.70;;;12.00;1.00;;;;;;4955225;29;20603;-87
2022/06/14 00:42:41;;;;;;;2.73;1.73;;;11.90;1.00;;;;;;4955376;29;20271;-87
2022/06/14 00:45:30;;;;;;;5.63;2.10;;;11.90;99.90;;;;;;4955108;29;20200;-87
2022/06/14 00:48:02;;;;;;;7.13;2.77;;;11.90;99.90;;;;;;4955377;29;20213;-88
2022/06/14 00:50:32;;;;;;;5.93;3.50;;;11.90;99.90;;;;;;4955297;29;20193;-87
2022/06/14 00:53:06;;;;;;;9.63;5.07;;;11.80;99.90;;;;;;4955448;29;20202;-88
2022/06/14 00:55:37;;;;;;;11.73;6.03;;;11.80;99.90;;;;;;4954665;28;20652;-87
2022/06/14 00:58:08;;;;;;;8.03;4.57;;;11.70;99.90;;;;;;4954887;29;20627;-87
2022/06/14 01:00:41;;;;;;;5.10;2.97;;;11.60;99.90;;;;;;4954869;29;20189;-87
2022/06/14 01:03:15;;;;;;;3.70;2.40;;;11.60;99.90;;;;;;4955151;29;20191;-89
2022/06/14 01:06:07;;;;;;;5.00;2.23;;;11.60;99.90;;;;;;4955096;29;20595;-86
2022/06/14 01:08:37;;;;;;;3.20;1.67;;;11.50;99.90;;;;;;4955236;29;20267;-87
2022/06/14 01:11:06;;;;;;;2.47;1.50;;;11.50;99.90;;;;;;4954697;29;20725;-88
2022/06/14 01:13:33;;;;;;;5.17;1.67;;;11.40;99.90;;;;;;4954954;29;20220;-86
2022/06/14 01:16:00;;;;;;;3.53;1.77;;;11.30;99.90;;;;;;4954897;29;20263;-86
2022/06/14 01:18:29;;;;;;;3.27;1.47;;;11.30;99.90;;;;;;4955006;29;20231;-87
2022/06/14 01:20:56;;;;;;;2.47;1.60;;;11.20;99.90;;;;;;4954711;29;20192;-86
2022/06/14 01:23:24;;;;;;;5.43;1.60;;;11.10;99.90;;;;;;4954655;29;20200;-91
2022/06/14 01:25:55;;;;;;;3.37;1.70;;;11.10;99.90;;;;;;4954703;28;20223;-86
2022/06/14 01:28:25;;;;;;;3.37;1.50;;;11.00;99.90;;;;;;4966790;28;20246;-87
2022/06/14 01:30:53;;;;;;;2.30;1.80;;;11.00;99.90;;;;;;4964052;28;20273;-87
2022/06/14 01:33:26;;;;;;;3.93;1.63;;;10.90;99.90;;;;;;4954443;28;20289;-86
2022/06/14 01:35:58;;;;;;;2.07;1.40;;;10.90;99.90;;;;;;4954757;29;20182;-87
2022/06/14 01:38:27;;;;;;;2.27;1.70;;;10.90;99.90;;;;;;4954796;29;20193;-86
2022/06/14 01:41:02;;;;;;;4.53;1.67;;;10.80;99.90;;;;;;4954221;29;20656;-87
2022/06/14 01:43:46;;;;;;;2.07;1.40;;;10.80;1.00;;;;;;4954867;29;20313;-88
2022/06/14 01:46:23;;;;;;;2.87;1.70;;;10.70;1.00;;;;;;4954318;29;20721;-87
2022/06/14 01:51:50;;;;;;;4.23;1.70;;;10.70;1.00;;;;;;4954368;29;20218;-86
2022/06/14 01:51:54;;;;;;;2.13;1.50;;;10.70;99.90;;;;;;4954124;29;20205;-87
2022/06/14 01:54:30;;;;;;;2.67;1.40;;;10.60;99.90;;;;;;4954580;29;20285;-88
2022/06/14 01:57:08;;;;;;;3.70;1.90;;;10.60;99.90;;;;;;4954659;28;20197;-86
2022/06/14 01:59:42;;;;;;;2.27;1.70;;;10.50;99.90;;;;;;4954303;29;20279;-89
2022/06/14 02:02:14;;;;;;;3.57;1.53;;;10.40;99.90;;;;;;4954547;29;20183;-87
2022/06/14 02:04:49;;;;;;;2.20;1.40;;;10.30;99.90;;;;;;4954125;28;20276;-86
2022/06/14 02:07:26;;;;;;;5.83;1.60;;;10.30;99.90;;;;;;4955690;28;20308;-86
2022/06/14 02:09:59;;;;;;;2.73;1.57;;;10.30;1.00;;;;;;4957788;29;20770;-87
2022/06/14 02:12:35;;;;;;;3.13;1.80;;;10.20;1.00;;;;;;4958037;29;20226;-88
2022/06/14 02:15:10;;;;;;;4.77;1.60;;;10.10;1.00;;;;;;4958223;29;20186;-87
2022/06/14 02:17:43;;;;;;;3.80;1.60;;;10.10;1.00;;;;;;4958068;29;20206;-87
2022/06/14 02:20:14;;;;;;;3.03;1.80;;;10.10;1.00;;;;;;4958048;29;20189;-88
2022/06/14 02:22:45;;;;;;;2.30;1.60;;;10.10;1.00;;;;;;4957975;29;20184;-87
2022/06/14 02:25:17;;;;;;;3.23;1.67;;;10.10;1.00;;;;;;4957611;29;20558;-86
2022/06/14 02:27:50;;;;;;;2.40;1.97;;;10.00;1.00;;;;;;4974033;28;20614;-89
2022/06/14 02:30:19;;;;;;;3.80;1.77;;;10.10;1.00;;;;;;4976816;28;20250;-86
2022/06/14 02:32:51;;;;;;;2.10;1.50;;;10.10;1.00;;;;;;4977065;28;20634;-86
2022/06/14 02:35:23;;;;;;;3.20;1.50;;;10.00;23.80;;;;;;4976684;28;20678;-86
2022/06/14 02:37:54;;;;;;;7.00;2.10;;;10.00;98.80;;;;;;4976662;28;20617;-86
2022/06/14 02:40:27;;;;;;;3.57;2.07;;;10.00;99.90;;;;;;4976874;28;20557;-86
2022/06/14 02:42:59;;;;;;;5.40;1.83;;;10.00;99.90;;;;;;4991382;28;20192;-86
2022/06/14 02:45:30;;;;;;;2.93;1.73;;;10.10;99.90;;;;;;4976957;28;20271;-89
2022/06/14 02:48:02;;;;;;;3.73;2.00;;;10.00;99.90;;;;;;4976924;28;20275;-87
2022/06/14 02:50:36;;;;;;;3.53;1.90;;;10.00;99.90;;;;;;4977218;28;20213;-87
2022/06/14 02:53:09;;;;;;;4.07;2.23;;;10.00;99.90;;;;;;4977132;28;20184;-88
2022/06/14 02:55:43;;;;;;;3.10;1.70;;;10.00;99.90;;;;;;4979933;28;20189;-86
2022/06/14 02:58:18;;;;;;;3.37;1.93;;;10.00;99.90;;;;;;4959318;28;20555;-86
2022/06/14 03:00:49;;;;;;;3.90;1.83;;;10.00;99.90;;;;;;4956819;29;20702;-85
2022/06/14 03:03:20;;;;;;;4.70;1.90;;;10.00;99.90;;;;;;4957216;29;20269;-86
2022/06/14 03:05:54;;;;;;;3.50;2.07;;;10.00;99.90;;;;;;4959691;29;20247;-85
2022/06/14 03:08:25;;;;;;;3.27;2.00;;;10.00;99.90;;;;;;4956575;29;20231;-86
2022/06/14 03:10:59;;;;;;;3.10;2.00;;;10.00;99.90;;;;;;4956893;29;20279;-86
2022/06/14 03:13:38;;;;;;;4.50;2.03;;;10.00;1.00;;;;;;4957864;29;20625;-90
2022/06/14 03:16:19;;;;;;;4.07;1.87;;;10.00;1.00;;;;;;4963774;29;20246;-89
2022/06/14 03:18:51;;;;;;;6.93;2.00;;;10.00;1.00;;;;;;4962999;28;20194;-87
2022/06/14 03:21:27;;;;;;;3.80;1.80;;;10.10;1.00;;;;;;4956632;29;20252;-87
2022/06/14 03:24:05;;;;;;;5.60;2.10;;;10.10;1.00;;;;;;4956441;29;20195;-89
2022/06/14 03:26:39;;;;;;;4.80;2.00;;;10.10;1.00;;;;;;4968786;28;20231;-85
2022/06/14 03:29:17;;;;;;;3.70;1.77;;;10.20;1.00;;;;;;4977973;28;20654;-91
2022/06/14 03:31:51;;;;;;;2.23;1.80;;;10.20;1.00;;;;;;4976322;28;20708;-89
2022/06/14 03:34:24;;;;;;;2.57;1.73;;;10.30;1.00;;;;;;4972573;28;20195;-87
2022/06/14 03:36:53;;;;;;;3.07;1.90;;;10.40;1.00;;;;;;4956921;29;20272;-87
2022/06/14 03:39:23;;;;;;;5.20;2.07;;;10.50;37.20;;;;;;4956302;29;20681;-88
2022/06/14 03:41:54;;;;;;;3.73;2.17;;;10.60;99.90;;;;;;4956813;29;20287;-89
2022/06/14 03:44:24;;;;;;;2.40;2.10;;;10.80;1.00;;;;;;4956771;29;20193;-88
2022/06/14 03:47:11;;;;;;;3.30;1.90;;;11.60;1.00;;;;;;4956474;29;20654;-90
2022/06/14 03:49:41;;;;;;;3.80;1.60;;;12.60;99.90;;;;;;4956788;29;20303;-88
2022/06/14 03:52:19;;;;;;;2.13;1.90;;;13.70;1.00;;;;;;4956905;29;20301;-88
2022/06/14 03:54:54;;;;;;;3.80;1.17;;;15.00;1.00;;;;;;4956041;29;20282;-89
2022/06/14 03:57:38;;;;;;;3.17;1.13;;;15.80;99.90;;;;;;4956950;28;20179;-89
2022/06/14 04:00:14;;;;;;;3.30;1.30;;;16.90;1.00;;;;;;4956510;29;20184;-89
2022/06/14 04:02:59;;;;;;;;;;;17.80;99.90;;;;;;4957026;29;19961;-90
2022/06/14 04:05:40;;;;;;;;;;;18.50;99.90;;;;;;4959323;28;20361;-87
2022/06/14 04:08:10;;;;;;;;;;;19.30;99.90;;;;;;4956569;29;20016;-86
2022/06/14 04:10:40;;;;;;;;;;;20.10;1.00;;;;;;4992021;28;20182;-91
2022/06/14 04:13:15;;;;;;;;;;;20.70;99.90;;;;;;4999591;28;19932;-90
2022/06/14 04:15:53;;;;;;;3.45;1.35;;;21.30;3.30;;;;;;4998262;28;20061;-93
2022/06/14 04:18:38;;;;;;;;;;;21.90;1.00;;;;;;4998452;28;20199;-91
2022/06/14 04:21:09;;;;;;;;;;;22.50;1.00;;;;;;4998998;28;19981;-91
2022/06/14 04:23:44;;;;;;;;;;;23.00;99.90;;;;;;4998826;28;19971;-91
2022/06/14 04:26:29;;;;;;;2.70;1.10;;;23.40;99.90;;;;;;4998001;28;20063;-90
2022/06/14 04:32:04;;;;;;;4.15;1.10;;;23.80;99.90;;;;;;4997712;28;20199;-93
2022/06/14 04:34:39;;;;;;;2.78;1.00;;;24.10;99.90;;;;;;4998426;28;20191;-90
2022/06/14 04:37:16;;;;;;;6.03;1.05;;;24.40;99.90;;;;;;4998203;28;20206;-93
2022/06/14 04:39:50;;;;;;;3.22;1.23;;;24.60;86.20;;;;;;4998057;28;20179;-92
2022/06/14 04:42:37;;;;;;;3.13;1.05;;;24.80;77.60;;;;;;4998331;28;20184;-92
2022/06/14 04:45:17;;;;;;;3.35;1.70;;;25.20;57.90;;;;;;4998192;28;20200;-91
2022/06/14 04:48:04;;;;;;;2.97;1.92;;;25.60;46.80;;;;;;4989682;28;20204;-89
2022/06/14 04:50:44;;;;;;;5.80;2.65;;;25.90;35.50;;;;;;4974298;28;20215;-90
2022/06/14 04:53:18;;;;;;;5.80;2.60;;;26.20;20.10;;;;;;4974117;28;20227;-89
2022/06/14 04:55:51;;;;;;;6.35;4.72;;;26.40;14.60;;;;;;4974151;28;20203;-88
2022/06/14 04:58:21;;;;;;;11.80;6.45;;;26.70;4.50;;;;;;4974337;28;20275;-88
2022/06/14 05:00:55;;;;;;;17.83;9.73;;;26.50;1.00;;;;;;4972344;28;20570;-89
2022/06/14 05:03:36;;;;;;;20.90;10.57;;;26.50;1.00;;;;;;4971118;28;20560;-94
2022/06/14 05:06:07;;;;;;;13.10;6.43;;;26.70;1.00;;;;;;4974080;28;20188;-91
2022/06/14 05:08:37;;;;;;;14.75;7.38;;;26.90;1.00;;;;;;4974902;28;20251;-92
2022/06/14 05:11:09;;;;;;;7.00;4.20;;;27.00;1.00;;;;;;4974506;28;20125;-91
2022/06/14 05:13:44;;;;;;;11.30;5.75;;;27.40;1.00;;;;;;4978955;28;20188;-89
2022/06/14 05:16:16;;;;;;;9.43;4.82;;;27.70;1.00;;;;;;4975108;28;20246;-90
2022/06/14 05:18:52;;;;;;;20.00;9.95;;;28.20;1.00;;;;;;4955432;29;20188;-89
2022/06/14 05:21:26;;;;;;;8.82;4.20;;;28.80;1.00;;;;;;4973494;29;20057;-91
2022/06/14 05:24:00;;;;;;;10.35;3.97;;;29.20;1.00;;;;;;4977325;28;20185;-92
2022/06/14 05:30:00;;;;;;;5.72;2.08;;;29.80;1.00;;;;;;4967708;29;20112;-90
2022/06/14 05:32:36;;;;;;;5.97;3.17;;;30.10;1.00;;;;;;4963225;29;20204;-88
2022/06/14 05:35:19;;;;;;;7.95;3.58;;;30.00;1.00;;;;;;4954187;29;20188;-86
2022/06/14 05:37:53;;;;;;;28.73;12.65;;;30.00;1.00;;;;;;4954239;29;20730;-86
2022/06/14 05:40:27;;;;;;;10.82;3.80;;;29.80;1.00;;;;;;4954532;29;20193;-86
2022/06/14 05:43:02;;;;;;;9.30;4.47;;;30.00;1.00;;;;;;4962295;29;20283;-86
2022/06/14 05:45:32;;;;;;;11.77;6.65;;;30.40;1.00;;;;;;4966791;29;20203;-88
2022/06/14 05:48:06;;;;;;;15.07;5.28;;;30.20;1.00;;;;;;4966925;29;20193;-87
2022/06/14 05:50:39;;;;;;;11.45;6.10;;;29.90;1.00;;;;;;4965255;29;20224;-87
2022/06/14 05:53:18;;;;;;;12.10;5.78;;;29.80;1.00;;;;;;4966055;29;20287;-87
2022/06/14 05:55:52;;;;;;;18.35;10.00;;;29.70;1.00;;;;;;4966378;29;20212;-87
2022/06/14 05:58:24;;;;;;;12.82;6.05;;;29.60;1.00;;;;;;4965122;29;20208;-88
2022/06/14 06:00:55;;;;;;;27.00;12.93;;;29.40;1.00;;;;;;4966152;29;20180;-89
2022/06/14 06:03:31;;;;;;;14.15;7.35;;;29.70;1.00;;;;;;4965697;29;20181;-86
2022/06/14 06:06:05;;;;;;;14.32;7.40;;;30.00;1.00;;;;;;4961244;29;20192;-89
2022/06/14 06:08:37;;;;;;;22.15;9.20;;;30.30;1.00;;;;;;4960660;29;20691;-86
2022/06/14 06:11:09;;;;;;;37.20;14.93;;;30.20;1.00;;;;;;4961159;29;20271;-86
2022/06/14 06:13:41;;;;;;;19.35;9.30;;;30.10;1.00;;;;;;4960260;29;20192;-86
2022/06/14 06:16:14;;;;;;;37.60;16.10;;;30.40;1.00;;;;;;4960339;29;20644;-85
2022/06/14 06:18:47;;;;;;;;;;;30.50;1.00;;;;;;4959766;29;20120;-87
2022/06/14 06:21:19;;;;;;;;;;;29.90;1.00;;;;;;4961065;29;20012;-87
2022/06/14 06:23:52;;;;;;;22.27;9.57;;;29.30;1.00;;;;;;4960234;29;20241;-87
2022/06/14 06:26:24;;;;;;;12.80;5.75;;;29.00;1.00;;;;;;4959246;29;20642;-87
2022/06/14 06:28:56;;;;;;;19.63;8.82;;;29.30;1.00;;;;;;4959239;29;20181;-88
2022/06/14 06:31:27;;;;;;;24.35;10.60;;;30.00;1.00;;;;;;4960338;29;20235;-86
2022/06/14 06:33:59;;;;;;;32.13;13.05;;;29.90;1.00;;;;;;4958883;29;20666;-90
2022/06/14 06:36:36;;;;;;;;;;;29.10;1.00;;;;;;4959799;29;20073;-90
2022/06/14 06:39:09;;;;;;;;;;;28.30;1.00;;;;;;4958173;29;19965;-88
2022/06/14 06:41:54;;;;;;;23.23;11.13;;;27.30;1.00;;;;;;4956435;29;20587;-86
2022/06/14 06:44:32;;;;;;;33.20;14.68;;;26.40;1.00;;;;;;4956532;29;20200;-86
2022/06/14 06:47:04;;;;;;;29.60;13.95;;;25.20;1.00;;;;;;4957725;29;20234;-87
2022/06/14 06:49:42;;;;;;;41.00;16.65;;;24.30;1.00;;;;;;4958114;29;20189;-86
2022/06/14 06:52:11;;;;;;;;;;;23.70;1.00;;;;;;4958689;28;20058;-87
2022/06/14 06:54:41;;;;;;;;;;;23.30;1.00;;;;;;4960861;29;19930;-87
2022/06/14 06:57:12;;;;;;;;;;;23.00;1.00;;;;;;4961901;28;20470;-87
2022/06/14 06:59:42;;;;;;;;;;;22.70;1.00;;;;;;4962752;29;19922;-85
2022/06/14 07:02:13;;;;;;;;;;;23.00;1.00;;;;;;4962109;29;19923;-86
2022/06/14 07:07:39;;;;;;;11.75;6.35;;;23.00;1.00;;;;;;4960991;29;20235;-86
2022/06/14 07:10:17;;;;;;;18.85;7.90;;;23.10;1.00;;;;;;4962656;29;20268;-89
2022/06/14 07:12:49;;;;;;;21.25;9.93;;;23.00;1.00;;;;;;4963615;29;20413;-88
2022/06/14 07:15:25;;;;;;;9.20;4.47;;;23.00;1.00;;;;;;4962015;29;20624;-86
2022/06/14 07:17:58;;;;;;;10.60;5.60;;;22.90;1.00;;;;;;4961801;29;20639;-88
2022/06/14 07:20:37;;;;;;;20.92;7.95;;;22.70;1.00;;;;;;4961837;29;20746;-88
2022/06/14 07:23:15;;;;;;;11.73;5.70;;;22.50;1.00;;;;;;4962498;29;20573;-91
2022/06/14 07:25:52;;;;;;;17.45;8.20;;;22.50;1.00;;;;;;4962502;29;20207;-89
2022/06/14 07:28:25;;;;;;;11.00;4.85;;;22.70;1.00;;;;;;4963380;29;20203;-88
2022/06/14 07:30:54;;;;;;;13.30;5.97;;;23.30;1.00;;;;;;4960709;29;20654;-85
2022/06/14 07:33:29;;;;;;;9.00;3.92;;;23.70;1.00;;;;;;4956912;29;20207;-92
2022/06/14 07:35:58;;;;;;;27.42;12.70;;;24.10;1.00;;;;;;4959614;29;20242;-88
2022/06/14 07:38:34;;;;;;;14.27;6.80;;;24.50;1.00;;;;;;4959148;29;20239;-94
2022/06/14 07:41:10;;;;;;;25.92;12.35;;;24.70;1.00;;;;;;4960282;29;20214;-89
2022/06/14 07:43:58;;;;;;;11.38;4.97;;;24.90;1.00;;;;;;4965542;28;20208;-91
2022/06/14 07:46:32;;;;;;;20.63;10.38;;;24.70;1.00;;;;;;4956456;29;20615;-87
2022/06/14 07:49:06;;;;;;;33.33;15.98;;;24.40;1.00;;;;;;4957409;29;20219;-92
2022/06/14 07:51:45;;;;;;;13.88;7.05;;;24.10;1.00;;;;;;4961125;29;20200;-90
2022/06/14 07:54:21;;;;;;;11.20;3.90;;;24.00;1.00;;;;;;4960626;29;20271;-88
2022/06/14 07:56:56;;;;;;;4.10;2.15;;;23.90;1.00;;;;;;4959953;29;20231;-87
2022/06/14 07:59:29;;;;;;;5.95;1.67;;;23.50;1.00;;;;;;4959118;29;20650;-86
2022/06/14 08:01:59;;;;;;;;;;;23.10;1.00;;;;;;4960617;29;20031;-86
2022/06/14 08:04:35;;;;;;;;;;;22.60;1.00;;;;;;4961252;28;20328;-89
2022/06/14 08:07:17;;;;;;;;;;;22.20;1.00;;;;;;4957745;29;19989;-86
2022/06/14 08:09:52;;;;;;;8.80;3.65;;;21.90;1.00;;;;;;4961939;29;20214;-86
2022/06/14 08:12:36;;;;;;;13.43;6.53;;;21.70;1.00;;;;;;4960291;29;20222;-85
2022/06/14 08:15:17;;;;;;;16.33;7.28;;;21.60;1.00;;;;;;4959887;29;20184;-86
2022/06/14 08:17:51;;;;;;;9.68;4.55;;;21.60;1.00;;;;;;4968999;29;20177;-89
2022/06/14 08:20:26;;;;;;;20.90;9.20;;;21.50;1.00;;;;;;4959965;29;20641;-86
2022/06/14 08:22:56;;;;;;;39.58;17.30;;;21.60;1.00;;;;;;4957749;29;20123;-87
2022/06/14 08:25:30;;;;;;;11.75;4.75;;;21.80;1.00;;;;;;4961384;29;20283;-92
2022/06/14 08:28:07;;;;;;;7.95;2.55;;;22.20;1.00;;;;;;4968375;29;20187;-89
2022/06/14 08:30:37;;;;;;;37.58;13.48;;;22.60;1.00;;;;;;4957976;29;20176;-88
2022/06/14 08:33:12;;;;;;;49.67;18.35;;;22.90;1.00;;;;;;4966385;29;20195;-86
2022/06/14 08:35:50;;;;;;;61.28;22.30;;;23.30;1.00;;;;;;4955831;29;20648;-92
2022/06/14 08:38:23;;;;;;;35.03;13.57;;;23.50;1.00;;;;;;4966027;29;20184;-89
2022/06/14 08:41:09;;;;;;;35.30;14.18;;;23.30;1.00;;;;;;4958668;29;20283;-91
2022/06/14 08:43:45;;;;;;;23.42;9.55;;;22.90;1.00;;;;;;4960520;29;20195;-91
2022/06/14 08:46:18;;;;;;;;;;;22.50;1.00;;;;;;4961031;29;20498;-86
2022/06/14 08:49:08;;;;;;;9.05;3.85;;;22.10;1.00;;;;;;4966563;29;20234;-90
2022/06/14 08:51:46;;;;;;;17.77;6.90;;;21.60;1.00;;;;;;4975228;29;20207;-89
2022/06/14 08:54:35;;;;;;;;;;;21.10;1.00;;;;;;4962625;29;20133;-86
2022/06/14 08:57:11;;;;;;;;;;;20.60;1.00;;;;;;4933964;29;19948;-89
2022/06/14 08:59:55;;;;;;;;;;;20.30;1.00;;;;;;4960990;29;20447;-87
2022/06/14 09:03:11;;;;;;;12.90;5.80;;;20.20;1.00;;;;;;4961414;29;20250;-85
2022/06/14 09:06:32;;;;;;;19.80;8.05;;;20.00;1.00;;;;;;4959498;29;20188;-87
2022/06/14 09:09:30;;;;;;;;;;;19.90;1.00;;;;;;4964014;29;20059;-88
2022/06/14 09:12:43;;;;;;;9.57;4.82;;;19.80;1.00;;;;;;4932004;29;20076;-88
2022/06/14 09:15:47;;;;;;;7.32;3.95;;;19.60;1.00;;;;;;4947485;28;20266;-87
2022/06/14 09:18:36;;;;;;;10.88;4.38;;;19.40;1.00;;;;;;4954801;29;20180;-88
2022/06/14 09:24:13;;;;;;;9.02;4.35;;;19.00;1.00;;;;;;4960024;29;20238;-87
2022/06/14 09:27:04;;;;;;;4.78;1.55;;;19.00;1.00;;;;;;4961691;29;20208;-86
2022/06/14 09:30:01;;;;;;;5.22;1.40;;;19.10;1.00;;;;;;4962595;29;20215;-88
2022/06/14 09:33:26;;;;;;;5.32;1.90;;;19.30;1.00;;;;;;4953199;29;20200;-85
2022/06/14 09:36:19;;;;;;;3.33;1.40;;;19.50;1.00;;;;;;4896804;29;20255;-87
2022/06/14 09:39:13;;;;;;;5.65;1.15;;;19.60;1.00;;;;;;4926228;29;20208;-88
2022/06/14 09:42:10;;;;;;;6.88;1.73;;;19.90;1.00;;;;;;4957203;29;20310;-84
2022/06/14 09:45:08;;;;;;;3.30;1.45;;;20.20;1.00;;;;;;4962972;29;20226;-85
2022/06/14 09:48:23;;;;;;;5.68;1.17;;;20.20;1.00;;;;;;4963209;29;20655;-92
2022/06/14 09:51:19;;;;;;;4.20;1.50;;;19.90;1.00;;;;;;4903312;29;20198;-89
2022/06/14 09:54:11;;;;;;;3.22;1.20;;;19.50;1.00;;;;;;4899096;29;20214;-86
2022/06/14 09:57:09;;;;;;;8.05;1.50;;;19.00;1.00;;;;;;4955193;29;20256;-86
2022/06/14 09:59:52;;;;;;;6.25;1.40;;;18.80;1.00;;;;;;4950944;29;20200;-87
2022/06/14 10:02:33;;;;;;;7.53;1.60;;;18.80;1.00;;;;;;4964851;29;20598;-85
2022/06/14 10:05:26;;;;;;;6.22;1.55;;;19.00;1.00;;;;;;4966502;29;20640;-84
2022/06/14 10:08:21;;;;;;;5.15;1.40;;;19.20;1.00;;;;;;4959833;29;20232;-90
2022/06/14 10:11:12;;;;;;;10.50;4.75;;;19.60;1.00;;;;;;4960213;29;20220;-91
2022/06/14 10:14:10;;;;;;;6.13;1.33;;;20.50;1.00;;;;;;4956396;29;20246;-92
2022/06/14 10:16:54;;;;;;;4.63;1.38;;;21.40;1.00;;;;;;4968268;29;20224;-88
2022/06/14 10:19:45;;;;;;;4.75;1.40;;;21.90;1.00;;;;;;4956796;29;20199;-85
2022/06/14 10:22:23;;;;;;;5.07;1.48;;;22.20;1.00;;;;;;4963980;29;20307;-91
2022/06/14 10:24:59;;;;;;;6.05;1.48;;;22.50;1.00;;;;;;4954096;29;20283;-86
2022/06/14 10:28:12;;;;;;;5.43;1.10;;;22.70;1.00;;;;;;4959477;28;20180;-86
2022/06/14 10:31:01;;;;;;;4.45;1.10;;;22.70;1.00;;;;;;4968702;29;20161;-88
2022/06/14 10:33:50;;;;;;;3.40;1.23;;;22.50;1.00;;;;;;4965271;29;20707;-88
2022/06/14 10:36:56;;;;;;;5.60;1.08;;;22.50;1.00;;;;;;4959609;29;20235;-93
2022/06/14 10:40:15;;;;;;;4.90;1.20;;;22.60;1.00;;;;;;4960064;29;20678;-86
2022/06/14 10:43:03;;;;;;;6.88;1.23;;;22.60;1.00;;;;;;4965435;29;20220;-94
2022/06/14 10:45:39;;;;;;;2.55;1.10;;;22.70;1.00;;;;;;4970834;29;20632;-92
2022/06/14 10:48:42;;;;;;;6.25;2.25;;;22.70;1.00;;;;;;4966588;29;20223;-91
2022/06/14 10:51:38;;;;;;;2.00;1.00;;;22.70;1.00;;;;;;4971613;29;20196;-89
2022/06/14 10:54:12;;;;;;;5.53;1.80;;;22.40;1.00;;;;;;4971495;29;20243;-88
2022/06/14 10:57:36;;;;;;;3.80;1.42;;;22.40;1.00;;;;;;4960080;29;20219;-86
2022/06/14 11:00:27;;;;;;;2.83;0.95;;;22.60;1.00;;;;;;4960256;29;20188;-88
2022/06/14 11:03:14;;;;;;;2.15;0.93;;;22.60;1.00;;;;;;4964726;29;20224;-89
2022/06/14 11:06:10;;;;;;;6.60;1.40;;;22.50;1.00;;;;;;4961228;29;20188;-85
2022/06/14 11:08:50;;;;;;;3.47;1.00;;;22.30;1.00;;;;;;4959930;29;20259;-87
2022/06/14 11:11:38;;;;;;;4.47;1.05;;;22.20;1.00;;;;;;4958550;29;20966;-87
2022/06/14 11:14:14;;;;;;;12.30;1.50;;;22.00;1.00;;;;;;4957395;29;20199;-86
2022/06/14 11:17:04;;;;;;;4.40;0.98;;;21.80;1.00;;;;;;4962367;28;20276;-84
2022/06/14 11:20:00;;;;;;;4.35;1.17;;;21.70;1.00;;;;;;4958725;29;20181;-87
2022/06/14 11:22:40;;;;;;;17.95;2.10;;;21.60;1.00;;;;;;4967086;29;20271;-86
2022/06/14 11:25:34;;;;;;;3.50;1.30;;;21.50;1.00;;;;;;4958205;29;20191;-87
2022/06/14 11:28:15;;;;;;;9.10;1.83;;;21.40;1.00;;;;;;4963430;29;20224;-86
2022/06/14 11:30:49;;;;;;;2.15;1.25;;;21.10;1.00;;;;;;4964088;29;20193;-88
2022/06/14 11:33:29;;;;;;;4.05;1.20;;;20.90;1.00;;;;;;4958060;29;20248;-86
2022/06/14 11:36:25;;;;;;;2.28;0.90;;;20.80;1.00;;;;;;4968797;29;20203;-89
2022/06/14 11:39:07;;;;;;;3.15;0.98;;;20.80;1.00;;;;;;4963848;28;20228;-87
2022/06/14 11:41:44;;;;;;;3.95;1.60;;;20.90;1.00;;;;;;4964196;29;20224;-88
2022/06/14 11:44:37;;;;;;;3.67;1.30;;;20.90;1.00;;;;;;4957972;29;20199;-88
2022/06/14 11:47:16;;;;;;;4.93;1.58;;;20.80;1.00;;;;;;4965770;29;20710;-87
2022/06/14 11:49:57;;;;;;;10.02;2.03;;;20.80;1.00;;;;;;4963897;29;20649;-90
2022/06/14 11:55:36;;;;;;;5.38;1.40;;;20.70;1.00;;;;;;4955319;29;20200;-87
2022/06/14 11:58:13;;;;;;;4.82;1.38;;;20.60;1.00;;;;;;4958099;29;20596;-89
2022/06/14 12:00:58;;;;;;;8.65;2.28;;;20.40;1.00;;;;;;4961983;29;20199;-88
2022/06/14 12:04:03;;;;;;;4.50;1.25;;;20.30;1.00;;;;;;4966626;29;20216;-91
2022/06/14 12:06:44;;;;;;;3.95;1.20;;;20.30;1.00;;;;;;4966243;29;20641;-88
2022/06/14 12:09:40;;;;;;;3.17;0.90;;;20.20;1.00;;;;;;4960333;29;20271;-85
2022/06/14 12:12:18;;;;;;;5.68;1.10;;;20.40;1.00;;;;;;4931296;29;20294;-86
2022/06/14 12:15:00;;;;;;;2.95;1.10;;;20.50;1.00;;;;;;4956698;29;20260;-89
2022/06/14 12:17:41;;;;;;;4.65;1.10;;;20.70;1.00;;;;;;4957624;29;20220;-88
2022/06/14 12:20:14;;;;;;;5.88;1.38;;;20.80;1.00;;;;;;4967213;29;20250;-93
2022/06/14 12:22:57;;;;;;;3.03;1.10;;;20.90;1.00;;;;;;4962942;29;20259;-87
2022/06/14 12:28:30;;;;;;;3.75;1.13;;;21.10;1.00;;;;;;4969009;29;20243;-91
2022/06/14 12:31:05;;;;;;;6.00;1.20;;;21.40;1.00;;;;;;4962253;29;20184;-88
2022/06/14 12:33:44;;;;;;;3.35;1.00;;;21.60;1.00;;;;;;4960629;29;20242;-88
2022/06/14 12:36:24;;;;;;;4.55;1.02;;;21.70;1.00;;;;;;4955871;28;20192;-85
2022/06/14 12:38:56;;;;;;;2.80;1.15;;;21.80;1.00;;;;;;4955244;28;20271;-86
2022/06/14 12:41:31;;;;;;;3.17;1.25;;;21.70;1.00;;;;;;4960444;29;20650;-86
2022/06/14 12:44:19;;;;;;;2.08;1.10;;;21.60;1.00;;;;;;4956970;29;20187;-84
2022/06/14 12:46:48;;;;;;;3.55;1.00;;;21.60;1.00;;;;;;4955379;29;20264;-87
2022/06/14 12:49:20;;;;;;;2.10;1.08;;;21.40;1.00;;;;;;4954924;29;20192;-84
2022/06/14 12:51:53;;;;;;;3.65;0.85;;;21.30;1.00;;;;;;4954779;28;20245;-85
2022/06/14 12:54:43;;;;;;;4.88;1.92;;;21.30;1.00;;;;;;4963429;29;20303;-85
2022/06/14 12:57:29;;;;;;;2.55;1.08;;;21.30;1.00;;;;;;4965503;29;20197;-89
2022/06/14 13:00:02;;;;;;;4.40;1.25;;;21.30;1.00;;;;;;4963105;29;20235;-85
2022/06/14 13:02:36;;;;;;;4.30;1.20;;;21.40;1.00;;;;;;4958101;29;20219;-85
2022/06/14 13:05:11;;;;;;;2.65;1.30;;;21.50;1.00;;;;;;4955133;29;20176;-87
2022/06/14 13:07:55;;;;;;;3.15;1.30;;;21.60;1.00;;;;;;4965308;28;20660;-91
2022/06/14 13:10:41;;;;;;;3.60;1.17;;;21.60;1.00;;;;;;4986023;28;20191;-87
2022/06/14 13:13:32;;;;;;;4.57;1.38;;;21.50;1.00;;;;;;4982267;28;20207;-87
2022/06/14 13:16:06;;;;;;;3.72;1.40;;;21.40;1.00;;;;;;4980979;28;20290;-87
2022/06/14 13:18:50;;;;;;;3.60;1.30;;;21.30;1.00;;;;;;4974172;28;20271;-86
2022/06/14 13:21:26;;;;;;;2.58;1.20;;;21.00;1.00;;;;;;4975461;28;20270;-87
2022/06/14 13:24:16;;;;;;;4.90;1.30;;;20.90;1.00;;;;;;4986892;28;20251;-88
2022/06/14 13:27:07;;;;;;;3.53;1.10;;;20.90;1.00;;;;;;4977148;28;20529;-91
2022/06/14 13:29:47;;;;;;;4.60;1.27;;;21.00;1.00;;;;;;4981951;28;20302;-88
2022/06/14 13:32:48;;;;;;;3.88;1.17;;;21.10;1.00;;;;;;4981944;28;20191;-91
2022/06/14 13:35:32;;;;;;;5.70;1.83;;;21.10;1.00;;;;;;4973823;28;20184;-87
2022/06/14 13:38:06;;;;;;;3.38;1.10;;;21.00;1.00;;;;;;4961562;28;20702;-88
2022/06/14 13:40:48;;;;;;;5.13;1.75;;;20.90;1.00;;;;;;4964993;29;20219;-92
2022/06/14 13:43:32;;;;;;;2.30;1.17;;;20.70;1.00;;;;;;4955918;29;20303;-91
2022/06/14 13:46:06;;;;;;;4.88;1.38;;;20.40;1.00;;;;;;4956500;28;20679;-87
2022/06/14 13:48:40;;;;;;;4.22;1.67;;;20.20;1.00;;;;;;4957439;29;20180;-91
2022/06/14 13:51:25;;;;;;;4.93;1.00;;;19.90;1.00;;;;;;4961348;29;20259;-92
2022/06/14 13:54:00;;;;;;;4.63;1.50;;;19.70;1.00;;;;;;4959175;29;20275;-90
2022/06/14 13:56:36;;;;;;;5.43;1.40;;;19.50;1.00;;;;;;4954331;29;20184;-86
2022/06/14 13:59:14;;;;;;;6.50;2.15;;;19.30;1.00;;;;;;4957571;29;20212;-88
2022/06/14 14:01:45;;;;;;;4.30;1.35;;;19.20;1.00;;;;;;4954308;28;20204;-86
2022/06/14 14:04:23;;;;;;;8.68;1.90;;;19.10;1.00;;;;;;4956926;29;20525;-87
2022/06/14 14:06:58;;;;;;;2.47;1.17;;;19.10;1.00;;;;;;4960227;28;20673;-85
2022/06/14 14:09:32;;;;;;;2.67;1.27;;;19.20;1.00;;;;;;4984226;28;20233;-88
2022/06/14 14:12:27;;;;;;;6.93;1.50;;;19.20;1.00;;;;;;4977099;28;20745;-87
2022/06/14 14:15:18;;;;;;;5.28;1.63;;;19.30;1.00;;;;;;4979202;28;20287;-86
2022/06/14 14:17:52;;;;;;;3.20;1.50;;;19.30;1.00;;;;;;4977691;28;20222;-85